createdAt,value
2019-02-26T00:01:34.881Z,15.08
2019-02-26T00:04:01.563Z,15.35
2019-02-26T00:06:30.121Z,15.48
2019-02-26T00:08:59.552Z,14.73
2019-02-26T00:11:26.722Z,15.80
2019-02-26T00:13:55.102Z,13.95
2019-02-26T00:16:22.782Z,14.28
2019-02-26T00:18:49.436Z,15.72
2019-02-26T00:21:16.432Z,14.23
2019-02-26T00:23:44.463Z,15.15
2019-02-26T00:26:12.813Z,12.88
2019-02-26T00:28:41.599Z,13.93
2019-02-26T00:31:08.932Z,15.68
2019-02-26T00:33:35.620Z,15.23
2019-02-26T00:36:04.343Z,15.65
2019-02-26T00:38:32.902Z,16.07
2019-02-26T00:41:01.758Z,15.63
2019-02-26T00:43:30.181Z,15.68
2019-02-26T00:45:58.343Z,15.15
2019-02-26T00:48:25.636Z,16.48
2019-02-26T00:50:54.299Z,16.23
2019-02-26T00:53:21.741Z,14.83
2019-02-26T00:55:51.590Z,16.40
2019-02-26T00:58:18.226Z,15.38
2019-02-26T01:00:44.864Z,15.58
2019-02-26T01:03:13.688Z,15.38
2019-02-26T01:05:41.016Z,15.53
2019-02-26T01:08:12.775Z,15.93
2019-02-26T01:10:39.297Z,15.30
2019-02-26T01:13:07.260Z,15.43
2019-02-26T01:15:34.178Z,15.13
2019-02-26T01:18:02.820Z,14.85
2019-02-26T01:20:31.798Z,14.38
2019-02-26T01:22:58.276Z,14.83
2019-02-26T01:25:24.945Z,15.30
2019-02-26T01:27:53.178Z,15.75
2019-02-26T01:30:23.632Z,14.03
2019-02-26T01:32:48.835Z,14.60
2019-02-26T01:35:15.592Z,15.20
2019-02-26T01:37:42.273Z,14.65
2019-02-26T01:40:12.904Z,13.58
2019-02-26T01:42:38.125Z,15.05
2019-02-26T01:45:05.779Z,14.75
2019-02-26T01:47:32.435Z,14.73
2019-02-26T01:49:59.457Z,14.25
2019-02-26T01:52:26.162Z,13.80
2019-02-26T01:54:53.512Z,13.62
2019-02-26T01:57:21.590Z,14.58
2019-02-26T01:59:50.135Z,14.63
2019-02-26T02:02:18.133Z,14.33
2019-02-26T02:04:45.535Z,13.90
2019-02-26T02:07:12.185Z,14.15
2019-02-26T02:09:39.004Z,13.75
2019-02-26T02:12:07.131Z,13.05
2019-02-26T02:14:34.354Z,13.43
2019-02-26T02:17:01.677Z,13.00
2019-02-26T02:19:30.936Z,13.38
2019-02-26T02:21:58.614Z,13.65
2019-02-26T02:24:25.283Z,13.25
2019-02-26T02:26:53.527Z,13.32
2019-02-26T02:29:21.655Z,14.35
2019-02-26T02:31:49.198Z,13.15
2019-02-26T02:34:15.893Z,13.90
2019-02-26T02:36:42.629Z,13.98
2019-02-26T02:39:12.926Z,13.58
2019-02-26T02:41:39.262Z,14.43
2019-02-26T02:44:06.633Z,13.83
2019-02-26T02:46:34.135Z,13.90
2019-02-26T02:49:02.295Z,14.00
2019-02-26T02:51:31.486Z,14.18
2019-02-26T02:53:59.384Z,14.28
2019-02-26T02:56:26.112Z,14.65
2019-02-26T02:58:52.862Z,14.03
2019-02-26T03:01:22.283Z,13.85
2019-02-26T03:03:50.275Z,14.05
2019-02-26T03:06:16.859Z,13.45
2019-02-26T03:08:45.286Z,12.43
2019-02-26T03:11:12.148Z,13.25
2019-02-26T03:13:40.410Z,13.72
2019-02-26T03:16:07.389Z,13.70
2019-02-26T03:18:34.087Z,14.87
2019-02-26T03:21:02.474Z,13.48
2019-02-26T03:23:30.843Z,12.63
2019-02-26T03:25:58.145Z,14.10
2019-02-26T03:28:24.798Z,13.35
2019-02-26T03:30:51.547Z,14.23
2019-02-26T03:33:18.233Z,13.22
2019-02-26T03:35:44.894Z,12.98
2019-02-26T03:38:11.695Z,14.07
2019-02-26T03:40:38.403Z,13.30
2019-02-26T03:43:07.466Z,13.13
2019-02-26T03:45:33.621Z,13.28
2019-02-26T03:48:00.324Z,17.98
2019-02-26T03:50:27.255Z,13.83
2019-02-26T03:52:54.042Z,13.38
2019-02-26T03:55:20.693Z,13.05
2019-02-26T03:57:50.380Z,13.48
2019-02-26T04:00:17.436Z,12.37
2019-02-26T04:02:47.719Z,12.80
2019-02-26T04:05:13.368Z,13.98
2019-02-26T04:07:40.083Z,13.20
2019-02-26T04:10:07.345Z,14.83
2019-02-26T04:12:39.250Z,14.78
2019-02-26T04:15:02.945Z,13.40
2019-02-26T04:17:30.753Z,14.00
2019-02-26T04:19:58.096Z,15.15
2019-02-26T04:22:34.188Z,15.28
2019-02-26T04:25:08.314Z,15.08
2019-02-26T04:28:14.931Z,14.40
2019-02-26T04:31:28.628Z,14.55
2019-02-26T04:34:08.642Z,12.90
2019-02-26T04:37:42.107Z,15.90
2019-02-26T04:40:32.930Z,14.60
2019-02-26T04:43:34.105Z,14.70
2019-02-26T04:46:51.478Z,15.35
2019-02-26T04:49:19.844Z,14.83
2019-02-26T04:51:48.399Z,13.70
2019-02-26T04:54:21.178Z,11.85
2019-02-26T04:56:45.106Z,13.80
2019-02-26T04:59:14.486Z,13.50
2019-02-26T05:01:40.930Z,14.83
2019-02-26T05:04:07.689Z,14.03
2019-02-26T05:06:34.344Z,15.48
2019-02-26T05:09:02.838Z,15.05
2019-02-26T05:11:32.409Z,14.75
2019-02-26T05:13:58.238Z,17.55
2019-02-26T05:16:26.662Z,15.88
2019-02-26T05:18:54.927Z,15.05
2019-02-26T05:21:24.392Z,16.85
2019-02-26T05:23:52.399Z,16.27
2019-02-26T05:26:20.824Z,16.00
2019-02-26T05:28:49.689Z,15.60
2019-02-26T05:31:17.489Z,17.25
2019-02-26T05:33:46.335Z,17.15
2019-02-26T05:36:15.020Z,15.68
2019-02-26T05:38:41.522Z,13.30
2019-02-26T05:41:08.206Z,16.07
2019-02-26T05:43:34.924Z,16.32
2019-02-26T05:46:03.985Z,16.52
2019-02-26T05:48:30.462Z,17.82
2019-02-26T05:50:58.042Z,16.90
2019-02-26T05:53:25.788Z,16.57
2019-02-26T05:55:54.179Z,17.95
2019-02-26T05:58:21.559Z,18.05
2019-02-26T06:00:48.249Z,15.75
2019-02-26T06:03:18.276Z,18.15
2019-02-26T06:05:46.009Z,17.37
2019-02-26T06:08:12.252Z,16.02
2019-02-26T06:10:38.967Z,16.87
2019-02-26T06:13:07.615Z,17.12
2019-02-26T06:15:34.255Z,18.25
2019-02-26T06:18:00.945Z,19.17
2019-02-26T06:20:29.217Z,17.85
2019-02-26T06:22:56.201Z,17.15
2019-02-26T06:25:24.336Z,18.20
2019-02-26T06:27:51.613Z,17.73
2019-02-26T06:30:18.274Z,19.40
2019-02-26T06:32:45.001Z,18.45
2019-02-26T06:35:13.658Z,17.35
2019-02-26T06:37:41.923Z,18.10
2019-02-26T06:40:09.841Z,16.30
2019-02-26T06:42:38.063Z,17.20
2019-02-26T06:45:08.335Z,18.20
2019-02-26T06:47:34.604Z,17.62
2019-02-26T06:50:02.893Z,17.90
2019-02-26T06:52:29.955Z,18.05
2019-02-26T06:55:00.103Z,16.97
2019-02-26T06:57:26.909Z,14.70
2019-02-26T06:59:55.756Z,13.15
2019-02-26T07:02:22.203Z,13.72
2019-02-26T07:04:48.859Z,12.03
2019-02-26T07:07:15.626Z,13.50
2019-02-26T07:09:43.902Z,11.43
2019-02-26T07:12:10.824Z,12.07
2019-02-26T07:14:37.500Z,11.90
2019-02-26T07:17:04.249Z,11.53
2019-02-26T07:19:33.124Z,12.13
2019-02-26T07:21:59.522Z,11.78
2019-02-26T07:24:27.191Z,11.40
2019-02-26T07:26:54.030Z,11.18
2019-02-26T07:29:20.679Z,11.95
2019-02-26T07:31:49.438Z,11.73
2019-02-26T07:34:18.128Z,10.95
2019-02-26T07:36:45.693Z,11.33
2019-02-26T07:39:15.321Z,10.72
2019-02-26T07:41:42.315Z,10.30
2019-02-26T07:44:15.403Z,10.38
2019-02-26T07:46:40.228Z,11.53
2019-02-26T07:49:07.878Z,11.22
2019-02-26T07:51:36.402Z,10.98
2019-02-26T07:54:03.155Z,10.58
2019-02-26T07:56:32.106Z,10.80
2019-02-26T07:59:01.382Z,11.60
2019-02-26T08:01:27.075Z,12.30
2019-02-26T08:03:53.756Z,10.85
2019-02-26T08:06:20.530Z,11.38
2019-02-26T08:08:48.937Z,11.20
2019-02-26T08:11:15.836Z,11.33
2019-02-26T08:13:42.552Z,10.72
2019-02-26T08:16:09.419Z,11.25
2019-02-26T08:18:36.079Z,11.73
2019-02-26T08:21:04.876Z,11.53
2019-02-26T08:23:31.428Z,11.25
2019-02-26T08:26:00.468Z,10.63
2019-02-26T08:28:26.806Z,11.08
2019-02-26T08:30:55.208Z,11.45
2019-02-26T08:33:22.048Z,10.30
2019-02-26T08:35:48.726Z,10.53
2019-02-26T08:38:16.332Z,10.43
2019-02-26T08:40:43.094Z,10.40
2019-02-26T08:43:09.827Z,10.48
2019-02-26T08:45:36.490Z,10.32
2019-02-26T08:48:03.141Z,11.73
2019-02-26T08:50:33.019Z,10.93
2019-02-26T08:52:58.700Z,10.98
2019-02-26T08:55:25.713Z,11.03
2019-02-26T08:57:54.028Z,11.70
2019-02-26T09:00:21.117Z,12.28
2019-02-26T09:02:50.603Z,11.50
2019-02-26T09:05:16.525Z,10.55
2019-02-26T09:07:45.163Z,13.05
2019-02-26T09:10:13.150Z,13.05
2019-02-26T09:12:41.925Z,12.82
2019-02-26T09:15:11.321Z,12.75
2019-02-26T09:17:39.753Z,12.03
2019-02-26T09:20:12.187Z,12.37
2019-02-26T09:22:40.583Z,12.40
2019-02-26T09:25:06.876Z,11.33
2019-02-26T09:27:34.480Z,12.18
2019-02-26T09:30:03.458Z,11.28
2019-02-26T09:32:32.359Z,11.88
2019-02-26T09:35:01.471Z,11.90
2019-02-26T09:37:28.112Z,12.65
2019-02-26T09:39:56.797Z,11.43
2019-02-26T09:42:25.495Z,10.70
2019-02-26T09:44:53.036Z,11.45
2019-02-26T09:47:30.379Z,12.23
2019-02-26T09:49:58.380Z,12.80
2019-02-26T09:52:27.563Z,10.08
2019-02-26T09:54:55.200Z,12.25
2019-02-26T09:57:23.331Z,10.85
2019-02-26T09:59:52.230Z,11.78
2019-02-26T10:02:21.811Z,11.08
2019-02-26T10:04:49.608Z,11.10
2019-02-26T10:07:16.738Z,9.90
2019-02-26T10:09:46.594Z,10.03
2019-02-26T10:12:13.509Z,9.70
2019-02-26T10:14:40.555Z,9.65
2019-02-26T10:17:09.077Z,8.78
2019-02-26T10:19:38.183Z,9.45
2019-02-26T10:22:07.153Z,9.50
2019-02-26T10:24:34.868Z,7.90
2019-02-26T10:27:03.696Z,9.23
2019-02-26T10:29:32.327Z,8.60
2019-02-26T10:31:58.923Z,8.73
2019-02-26T10:34:30.104Z,8.65
2019-02-26T10:36:54.501Z,7.53
2019-02-26T10:39:23.196Z,8.65
2019-02-26T10:41:49.796Z,9.00
2019-02-26T10:44:16.504Z,8.65
2019-02-26T10:46:44.507Z,7.72
2019-02-26T10:49:12.467Z,8.95
2019-02-26T10:51:42.419Z,9.35
2019-02-26T10:54:11.754Z,9.05
2019-02-26T10:56:39.366Z,8.30
2019-02-26T10:59:06.666Z,7.53
2019-02-26T11:01:33.914Z,7.03
2019-02-26T11:04:00.841Z,7.12
2019-02-26T11:06:27.625Z,7.53
2019-02-26T11:08:55.851Z,7.67
2019-02-26T11:11:22.974Z,7.53
2019-02-26T11:13:51.943Z,8.58
2019-02-26T11:16:24.833Z,7.67
2019-02-26T11:18:47.705Z,7.80
2019-02-26T11:21:16.813Z,6.55
2019-02-26T11:23:44.519Z,6.33
2019-02-26T11:26:13.150Z,7.05
2019-02-26T11:28:42.890Z,5.97
2019-02-26T11:31:11.547Z,5.70
2019-02-26T11:33:38.014Z,7.40
2019-02-26T11:36:05.498Z,9.08
2019-02-26T11:38:34.729Z,8.98
2019-02-26T11:41:02.228Z,8.75
2019-02-26T11:43:29.059Z,9.20
2019-02-26T11:45:56.677Z,9.00
2019-02-26T11:48:25.926Z,10.08
2019-02-26T11:50:53.036Z,10.10
2019-02-26T11:53:19.787Z,10.50
2019-02-26T11:55:46.512Z,10.90
2019-02-26T11:58:16.055Z,9.73
2019-02-26T12:00:48.082Z,10.35
2019-02-26T12:03:14.766Z,10.23
2019-02-26T12:05:41.910Z,9.90
2019-02-26T12:08:08.784Z,9.25
2019-02-26T12:10:37.826Z,9.13
2019-02-26T12:13:04.331Z,8.18
2019-02-26T12:15:33.460Z,7.60
2019-02-26T12:17:59.572Z,8.53
2019-02-26T12:20:26.243Z,8.45
2019-02-26T12:22:55.218Z,8.43
2019-02-26T12:25:21.575Z,8.85
2019-02-26T12:27:48.327Z,9.15
2019-02-26T12:30:18.140Z,9.40
2019-02-26T12:35:17.717Z,10.80
2019-02-26T12:37:43.358Z,10.88
2019-02-26T12:40:12.987Z,10.78
2019-02-26T12:42:39.259Z,9.88
2019-02-26T12:45:09.909Z,10.10
2019-02-26T12:47:35.681Z,9.98
2019-02-26T12:50:05.221Z,10.03
2019-02-26T12:52:31.053Z,9.05
2019-02-26T12:55:00.123Z,9.98
2019-02-26T12:57:28.811Z,9.60
2019-02-26T12:59:54.876Z,9.38
2019-02-26T13:02:24.621Z,8.78
2019-02-26T13:04:51.595Z,10.10
2019-02-26T13:07:18.912Z,8.63
2019-02-26T13:09:50.457Z,9.80
2019-02-26T13:12:19.855Z,8.93
2019-02-26T13:14:43.594Z,9.13
2019-02-26T13:17:13.990Z,8.98
2019-02-26T13:19:41.470Z,7.80
2019-02-26T13:22:09.771Z,7.08
2019-02-26T13:24:36.982Z,8.05
2019-02-26T13:27:03.652Z,6.22
2019-02-26T13:29:31.339Z,4.72
2019-02-26T13:31:59.965Z,5.15
2019-02-26T13:34:26.898Z,5.97
2019-02-26T13:36:56.645Z,4.53
2019-02-26T13:39:29.655Z,4.97
2019-02-26T13:41:54.332Z,5.58
2019-02-26T13:44:19.486Z,5.72
2019-02-26T13:46:46.168Z,5.45
2019-02-26T13:49:12.846Z,6.00
2019-02-26T13:51:39.557Z,5.72
2019-02-26T13:54:06.275Z,5.30
2019-02-26T13:56:33.030Z,5.08
2019-02-26T13:58:59.698Z,5.33
2019-02-26T14:01:26.508Z,5.50
2019-02-26T14:03:53.154Z,5.15
2019-02-26T14:06:19.913Z,5.75
2019-02-26T14:08:46.583Z,5.53
2019-02-26T14:11:13.298Z,4.85
2019-02-26T14:13:40.008Z,5.65
2019-02-26T14:16:06.774Z,5.40
2019-02-26T14:18:33.432Z,5.42
2019-02-26T14:21:00.148Z,5.97
2019-02-26T14:23:27.009Z,6.47
2019-02-26T14:25:53.765Z,5.42
2019-02-26T14:28:20.437Z,4.30
2019-02-26T14:30:47.241Z,4.35
2019-02-26T14:33:13.951Z,5.03
2019-02-26T14:35:40.674Z,4.70
2019-02-26T14:38:07.375Z,4.75
2019-02-26T14:40:34.101Z,4.75
2019-02-26T14:43:00.756Z,4.58
2019-02-26T14:45:27.488Z,4.53
2019-02-26T14:47:54.194Z,5.35
2019-02-26T14:50:20.850Z,4.90
2019-02-26T14:52:47.539Z,5.10
2019-02-26T14:55:14.241Z,5.10
2019-02-26T14:57:40.935Z,5.40
2019-02-26T15:00:11.728Z,7.45
2019-02-26T15:02:38.389Z,5.15
2019-02-26T15:05:05.081Z,5.80
2019-02-26T15:07:31.920Z,4.87
2019-02-26T15:09:59.356Z,6.20
2019-02-26T15:12:26.181Z,4.78
2019-02-26T15:14:53.238Z,4.30
2019-02-26T15:17:20.429Z,4.35
2019-02-26T15:19:51.401Z,3.90
2019-02-26T15:22:15.843Z,4.28
2019-02-26T15:24:42.955Z,4.05
2019-02-26T15:27:10.820Z,4.00
2019-02-26T15:29:59.678Z,4.50
2019-02-26T15:32:26.635Z,6.03
2019-02-26T15:34:53.606Z,7.12
2019-02-26T15:37:20.286Z,8.20
2019-02-26T15:39:46.958Z,8.10
2019-02-26T15:42:14.043Z,9.10
2019-02-26T15:44:40.714Z,8.60
2019-02-26T15:47:09.214Z,9.15
2019-02-26T15:49:37.771Z,9.10
2019-02-26T15:52:04.828Z,7.95
2019-02-26T15:54:31.801Z,8.55
2019-02-26T15:57:00.482Z,8.20
2019-02-26T15:59:30.002Z,8.50
2019-02-26T16:01:56.958Z,8.48
2019-02-26T16:04:24.425Z,8.85
2019-02-26T16:06:51.144Z,7.72
2019-02-26T16:09:17.794Z,8.10
2019-02-26T16:11:44.606Z,8.38
2019-02-26T16:14:11.245Z,7.92
2019-02-26T16:16:38.062Z,7.28
2019-02-26T16:19:04.964Z,7.78
2019-02-26T16:21:31.801Z,8.93
2019-02-26T16:23:58.624Z,8.73
2019-02-26T16:26:25.508Z,8.10
2019-02-26T16:28:52.145Z,8.13
2019-02-26T16:31:18.850Z,8.23
2019-02-26T16:33:46.721Z,8.58
2019-02-26T16:36:14.189Z,8.00
2019-02-26T16:38:40.866Z,8.85
2019-02-26T16:41:07.560Z,9.00
2019-02-26T16:43:34.189Z,10.10
2019-02-26T16:46:00.940Z,9.40
2019-02-26T16:48:27.602Z,8.98
2019-02-26T16:50:54.355Z,7.85
2019-02-26T16:53:20.989Z,8.88
2019-02-26T16:55:49.069Z,7.97
2019-02-26T16:58:16.329Z,8.38
2019-02-26T17:00:43.081Z,8.20
2019-02-26T17:03:09.730Z,8.20
2019-02-26T17:05:36.600Z,8.00
2019-02-26T17:08:03.248Z,8.08
2019-02-26T17:10:30.639Z,9.20
2019-02-26T17:13:01.850Z,8.03
2019-02-26T17:15:27.142Z,8.15
2019-02-26T17:17:53.998Z,8.03
2019-02-26T17:20:22.529Z,7.75
2019-02-26T17:22:49.537Z,7.37
2019-02-26T17:25:16.371Z,7.20
2019-02-26T17:27:43.042Z,7.97
2019-02-26T17:30:10.304Z,7.85
2019-02-26T17:32:38.274Z,8.28
2019-02-26T17:35:06.344Z,8.23
2019-02-26T17:37:32.983Z,7.85
2019-02-26T17:40:02.734Z,8.45
2019-02-26T17:42:28.398Z,7.83
2019-02-26T17:44:55.051Z,8.60
2019-02-26T17:47:21.895Z,7.65
2019-02-26T17:49:48.775Z,9.33
2019-02-26T17:52:15.500Z,8.73
2019-02-26T17:54:42.466Z,9.15
2019-02-26T17:57:09.194Z,9.75
2019-02-26T17:59:37.432Z,10.00
2019-02-26T18:02:04.195Z,9.55
2019-02-26T18:04:30.864Z,9.55
2019-02-26T18:06:57.860Z,8.88
2019-02-26T18:09:26.106Z,10.05
2019-02-26T18:11:52.844Z,9.50
2019-02-26T18:14:19.497Z,9.83
2019-02-26T18:17:26.141Z,11.22
2019-02-26T18:19:52.858Z,9.70
2019-02-26T18:22:21.642Z,9.13
2019-02-26T18:24:48.206Z,8.15
2019-02-26T18:27:14.856Z,9.93
2019-02-26T18:29:43.871Z,8.73
2019-02-26T18:32:11.259Z,9.68
2019-02-26T18:34:38.878Z,8.83
2019-02-26T18:37:06.663Z,9.50
2019-02-26T18:39:33.349Z,9.88
2019-02-26T18:41:59.979Z,9.58
2019-02-26T18:44:27.188Z,9.88
2019-02-26T18:46:53.830Z,10.60
2019-02-26T18:49:21.842Z,11.00
2019-02-26T18:51:49.844Z,10.68
2019-02-26T18:54:17.714Z,12.23
2019-02-26T18:56:45.092Z,9.30
2019-02-26T18:59:11.850Z,11.08
2019-02-26T19:01:39.776Z,12.35
2019-02-26T19:04:06.466Z,12.88
2019-02-26T19:06:33.159Z,12.58
2019-02-26T19:09:00.068Z,12.13
2019-02-26T19:11:26.960Z,14.87
2019-02-26T19:13:53.857Z,15.98
2019-02-26T19:16:21.238Z,19.50
2019-02-26T19:18:48.175Z,16.27
2019-02-26T19:22:26.510Z,16.23
2019-02-26T19:24:53.015Z,16.20
2019-02-26T19:27:20.118Z,17.32
2019-02-26T19:29:47.153Z,17.52
2019-02-26T19:32:15.730Z,16.45
2019-02-26T19:34:42.473Z,16.10
2019-02-26T19:37:09.124Z,16.67
2019-02-26T19:39:35.991Z,17.62
2019-02-26T19:42:02.770Z,17.85
2019-02-26T19:44:30.518Z,16.30
2019-02-26T19:46:57.178Z,16.27
2019-02-26T19:49:24.091Z,15.65
2019-02-26T19:51:50.735Z,15.23
2019-02-26T19:54:17.467Z,16.42
2019-02-26T19:56:44.247Z,15.23
2019-02-26T19:59:13.518Z,15.28
2019-02-26T20:01:41.665Z,21.77
2019-02-26T20:04:08.431Z,20.90
2019-02-26T20:06:35.064Z,14.35
2019-02-26T20:09:05.851Z,13.10
2019-02-26T20:11:30.828Z,14.40
2019-02-26T20:14:04.568Z,13.58
2019-02-26T20:16:27.784Z,14.93
2019-02-26T20:18:56.756Z,14.35
2019-02-26T20:21:23.322Z,12.65
2019-02-26T20:23:50.081Z,11.73
2019-02-26T20:26:17.023Z,13.08
2019-02-26T20:28:43.799Z,27.52
2019-02-26T20:31:10.627Z,19.05
2019-02-26T20:33:37.500Z,15.15
2019-02-26T20:36:04.204Z,14.95
2019-02-26T20:38:35.055Z,13.85
2019-02-26T20:40:59.642Z,15.05
2019-02-26T20:43:26.319Z,14.18
2019-02-26T20:45:53.028Z,15.45
2019-02-26T20:48:19.680Z,15.10
2019-02-26T20:50:46.458Z,13.88
2019-02-26T20:53:13.149Z,14.35
2019-02-26T20:55:40.008Z,14.23
2019-02-26T20:58:06.708Z,13.90
2019-02-26T21:00:33.371Z,14.40
2019-02-26T21:03:00.204Z,18.50
2019-02-26T21:05:27.112Z,16.97
2019-02-26T21:07:58.100Z,15.78
2019-02-26T21:10:22.512Z,19.37
2019-02-26T21:12:49.143Z,17.35
2019-02-26T21:15:16.623Z,21.25
2019-02-26T21:17:43.610Z,14.53
2019-02-26T21:20:11.216Z,15.55
2019-02-26T21:22:37.903Z,15.65
2019-02-26T21:25:04.912Z,16.48
2019-02-26T21:27:31.564Z,16.65
2019-02-26T21:29:58.199Z,14.87
2019-02-26T21:32:25.750Z,16.12
2019-02-26T21:34:52.915Z,16.25
2019-02-26T21:37:19.570Z,15.88
2019-02-26T21:39:46.231Z,15.23
2019-02-26T21:42:13.049Z,15.83
2019-02-26T21:44:41.869Z,15.13
2019-02-26T21:47:08.383Z,15.78
2019-02-26T21:49:35.007Z,15.08
2019-02-26T21:52:01.648Z,14.18
2019-02-26T21:54:32.294Z,16.23
2019-02-26T21:56:59.122Z,15.32
2019-02-26T21:59:25.875Z,14.83
2019-02-26T22:01:52.709Z,13.68
2019-02-26T22:04:19.335Z,14.63
2019-02-26T22:06:47.792Z,14.03
2019-02-26T22:09:14.488Z,14.20
2019-02-26T22:11:41.121Z,15.50
2019-02-26T22:14:07.765Z,14.80
2019-02-26T22:16:34.429Z,14.58
2019-02-26T22:19:01.067Z,15.08
2019-02-26T22:21:27.699Z,16.35
2019-02-26T22:23:54.388Z,15.83
2019-02-26T22:26:21.031Z,15.95
2019-02-26T22:28:47.665Z,15.38
2019-02-26T22:31:14.340Z,13.83
2019-02-26T22:33:43.179Z,14.68
2019-02-26T22:36:09.610Z,14.85
2019-02-26T22:38:36.308Z,16.10
2019-02-26T22:41:03.058Z,16.27
2019-02-26T22:43:29.855Z,16.55
2019-02-26T22:46:00.760Z,16.35
2019-02-26T22:48:25.086Z,15.45
2019-02-26T22:50:51.726Z,15.83
2019-02-26T22:53:18.460Z,15.70
2019-02-26T22:55:49.633Z,15.65
2019-02-26T22:58:13.772Z,14.95
2019-02-26T23:01:11.640Z,16.52
2019-02-26T23:03:38.997Z,14.00
2019-02-26T23:06:05.612Z,15.43
2019-02-26T23:08:32.879Z,15.32
2019-02-26T23:10:59.526Z,14.35
2019-02-26T23:13:26.277Z,15.95
2019-02-26T23:15:52.922Z,14.05
2019-02-26T23:18:19.656Z,14.55
2019-02-26T23:20:46.297Z,15.32
2019-02-26T23:23:12.938Z,15.32
2019-02-26T23:25:39.611Z,15.85
2019-02-26T23:28:06.267Z,15.50
2019-02-26T23:30:32.979Z,16.10
2019-02-26T23:32:59.619Z,14.75
2019-02-26T23:35:26.341Z,15.70
2019-02-26T23:37:53.043Z,14.90
2019-02-26T23:40:19.802Z,14.98
2019-02-26T23:42:46.447Z,15.03
2019-02-26T23:45:13.174Z,14.45
2019-02-26T23:47:39.803Z,15.00
2019-02-26T23:50:06.580Z,15.10
2019-02-26T23:52:33.207Z,14.07
2019-02-26T23:54:59.926Z,14.55
2019-02-26T23:57:26.602Z,13.80
2019-02-26T23:59:53.321Z,15.15
